Terminal Aerodrome Forecast
Issued by NWS Sioux Falls, SD

Home | Current Version | Previous Version | Text Only | Print | Product List | Glossary On
Versions: 1 2 3 4 5 6 7 8 9 10 11 12 13 14 15 16
000
FTUS43 KFSD 301742
TAFSUX
TAF
KSUX 301742Z 3018/3118 19004KT P6SM SCT020 BKN200
     FM302200 07004KT P6SM VCTS OVC045CB
     FM310100 03004KT P6SM BKN050
     FM310400 07004KT P6SM BKN250
     FM310800 VRB03KT 5SM BR SCT250
      TEMPO 3111/3113 2SM BR
     FM311400 05004KT P6SM BKN250=

USA.gov is the U.S. government's official web portal to all federal, state and local government web resources and services.